createdAt,value
2019-05-19T00:01:44.531Z,2.47
2019-05-19T00:11:38.596Z,2.73
2019-05-19T00:14:07.773Z,3.00
2019-05-19T00:16:37.441Z,5.03
2019-05-19T00:19:06.572Z,2.83
2019-05-19T00:38:54.925Z,3.03
2019-05-19T00:41:24.073Z,4.20
2019-05-19T00:43:53.198Z,3.40
2019-05-19T00:46:22.267Z,3.60
2019-05-19T00:48:51.632Z,3.27
2019-05-19T00:51:21.910Z,3.47
2019-05-19T00:53:51.083Z,3.47
2019-05-19T00:56:21.095Z,9.90
2019-05-19T00:58:50.599Z,3.10
2019-05-19T01:01:19.998Z,3.87
2019-05-19T01:03:49.139Z,3.17
2019-05-19T01:06:18.234Z,3.77
2019-05-19T01:08:48.053Z,4.43
2019-05-19T01:11:17.177Z,4.10
2019-05-19T01:13:46.354Z,3.33
2019-05-19T01:16:15.418Z,3.97
2019-05-19T01:18:44.562Z,5.03
2019-05-19T01:21:14.861Z,4.43
2019-05-19T01:23:43.986Z,4.70
2019-05-19T01:26:13.155Z,7.63
2019-05-19T01:28:42.551Z,3.13
2019-05-19T01:31:11.628Z,6.03
2019-05-19T01:33:40.787Z,3.90
2019-05-19T01:36:10.256Z,3.50
2019-05-19T01:38:39.606Z,7.87
2019-05-19T01:41:14.329Z,3.50
2019-05-19T01:43:43.695Z,4.07
2019-05-19T01:46:12.769Z,4.43
2019-05-19T01:48:41.927Z,4.13
2019-05-19T01:51:11.946Z,5.00
2019-05-19T01:53:41.329Z,4.90
2019-05-19T01:56:11.034Z,6.00
2019-05-19T01:58:40.472Z,5.80
2019-05-19T02:01:09.551Z,4.80
2019-05-19T02:03:38.918Z,4.83
2019-05-19T02:06:08.006Z,5.00
2019-05-19T02:08:37.099Z,5.70
2019-05-19T02:11:06.436Z,5.17
2019-05-19T02:13:35.787Z,7.03
2019-05-19T02:16:04.870Z,5.10
2019-05-19T02:18:34.525Z,6.20
2019-05-19T02:21:03.884Z,7.80
2019-05-19T02:23:32.976Z,5.23
2019-05-19T02:26:02.078Z,4.80
2019-05-19T02:28:31.701Z,4.80
2019-05-19T02:31:01.031Z,5.17
2019-05-19T02:33:30.507Z,5.07
2019-05-19T02:36:00.227Z,5.00
2019-05-19T02:38:29.332Z,5.23
2019-05-19T02:41:00.636Z,5.70
2019-05-19T02:43:30.327Z,4.90
2019-05-19T04:47:45.557Z,4.80
2019-05-19T04:50:14.747Z,7.97
2019-05-19T04:52:43.903Z,7.67
2019-05-19T04:55:13.272Z,7.40
2019-05-19T04:57:43.170Z,6.10
2019-05-19T05:00:12.729Z,7.30
2019-05-19T05:02:42.147Z,7.40
2019-05-19T05:05:11.352Z,7.10
2019-05-19T05:07:40.719Z,7.40
2019-05-19T05:10:11.643Z,8.53
2019-05-19T05:12:41.005Z,6.50
2019-05-19T05:15:10.302Z,7.50
2019-05-19T05:17:39.428Z,7.30
2019-05-19T05:20:08.808Z,9.87
2019-05-19T05:22:38.025Z,11.33
2019-05-19T05:25:07.537Z,8.23
2019-05-19T05:54:48.152Z,9.43
2019-05-19T05:57:17.336Z,12.55
2019-05-19T05:59:46.441Z,13.75
2019-05-19T06:02:15.549Z,12.40
2019-05-19T06:19:34.584Z,10.93
2019-05-19T06:22:03.775Z,12.00
2019-05-19T06:24:33.112Z,10.98
2019-05-19T06:27:02.735Z,10.30
2019-05-19T06:29:31.835Z,17.75
2019-05-19T06:32:06.804Z,10.03
2019-05-19T06:34:36.175Z,8.90
2019-05-19T06:37:05.548Z,10.30
2019-05-19T06:39:35.432Z,7.33
2019-05-19T06:42:04.797Z,10.07
2019-05-19T06:44:34.164Z,7.90
2019-05-19T06:49:32.027Z,7.78
2019-05-19T06:52:01.438Z,7.33
2019-05-19T06:54:30.548Z,7.23
2019-05-19T06:56:59.724Z,10.67
2019-05-19T06:59:28.822Z,6.40
2019-05-19T07:01:58.349Z,8.70
2019-05-19T07:04:27.792Z,6.53
2019-05-19T07:06:57.024Z,7.60
2019-05-19T07:09:26.625Z,6.43
2019-05-19T07:11:56.073Z,8.03
2019-05-19T07:14:25.411Z,9.30
2019-05-19T07:16:54.510Z,13.10
2019-05-19T07:19:23.927Z,8.13
2019-05-19T07:21:53.428Z,6.93
2019-05-19T07:24:22.768Z,7.00
2019-05-19T07:26:51.862Z,7.13
2019-05-19T07:29:21.203Z,8.33
2019-05-19T07:31:50.314Z,8.37
2019-05-19T07:34:19.654Z,7.93
2019-05-19T07:36:49.488Z,7.77
2019-05-19T07:39:18.880Z,8.20
2019-05-19T07:41:48.062Z,16.93
2019-05-19T07:44:17.565Z,9.70
2019-05-19T07:46:46.749Z,7.47
2019-05-19T07:49:16.114Z,8.60
2019-05-19T07:51:45.328Z,7.13
2019-05-19T07:54:14.763Z,7.70
2019-05-19T07:56:43.947Z,8.30
2019-05-19T07:59:13.276Z,8.43
2019-05-19T08:01:42.671Z,8.50
2019-05-19T08:04:12.007Z,8.00
2019-05-19T08:06:41.639Z,9.60
2019-05-19T08:09:10.817Z,7.07
2019-05-19T08:11:40.199Z,8.17
2019-05-19T08:14:09.559Z,8.53
2019-05-19T08:16:38.688Z,7.50
2019-05-19T08:19:07.780Z,8.60
2019-05-19T08:21:37.143Z,7.20
2019-05-19T08:24:06.593Z,8.27
2019-05-19T08:26:35.687Z,6.77
2019-05-19T08:29:04.783Z,6.50
2019-05-19T08:31:34.130Z,8.87
2019-05-19T08:34:03.274Z,9.10
2019-05-19T08:36:32.899Z,7.97
2019-05-19T08:39:02.047Z,7.83
2019-05-19T08:41:31.495Z,12.60
2019-05-19T08:44:00.599Z,7.67
2019-05-19T08:46:29.698Z,6.40
2019-05-19T08:48:59.319Z,8.43
2019-05-19T08:51:28.492Z,19.83
2019-05-19T08:53:57.861Z,5.70
2019-05-19T08:56:27.130Z,6.70
2019-05-19T08:58:56.223Z,6.60
2019-05-19T09:01:25.592Z,8.77
2019-05-19T09:03:54.683Z,9.30
2019-05-19T09:06:23.816Z,6.37
2019-05-19T09:08:53.046Z,7.13
2019-05-19T09:11:22.179Z,7.33
2019-05-19T09:13:51.283Z,7.43
2019-05-19T09:16:20.386Z,8.60
2019-05-19T09:18:49.572Z,7.42
2019-05-19T09:23:46.874Z,7.40
2019-05-19T09:26:16.240Z,6.93
2019-05-19T09:28:45.547Z,7.50
2019-05-19T09:31:14.675Z,5.73
2019-05-19T09:33:44.303Z,7.83
2019-05-19T09:36:13.382Z,6.80
2019-05-19T09:38:42.779Z,9.10
2019-05-19T09:41:12.207Z,9.10
2019-05-19T09:43:41.409Z,12.97
2019-05-19T09:46:14.045Z,10.50
2019-05-19T09:48:44.015Z,7.50
2019-05-19T09:51:13.259Z,9.40
2019-05-19T09:53:42.435Z,6.83
2019-05-19T09:56:11.521Z,9.10
2019-05-19T09:58:40.888Z,8.43
2019-05-19T10:01:10.243Z,8.20
2019-05-19T10:03:39.340Z,7.60
2019-05-19T10:06:08.511Z,7.30
2019-05-19T10:08:46.763Z,9.97
2019-05-19T10:12:00.878Z,8.50
2019-05-19T10:14:29.975Z,9.13
2019-05-19T10:16:59.531Z,8.37
2019-05-19T10:19:28.638Z,8.20
2019-05-19T10:21:57.827Z,10.10
2019-05-19T10:24:26.928Z,6.73
2019-05-19T10:26:56.273Z,8.97
2019-05-19T10:29:25.468Z,8.33
2019-05-19T10:31:54.639Z,8.10
2019-05-19T10:34:23.736Z,8.97
2019-05-19T10:36:53.007Z,16.93
2019-05-19T10:39:22.412Z,7.70
2019-05-19T10:41:51.939Z,10.70
2019-05-19T10:44:21.028Z,8.30
2019-05-19T10:46:50.126Z,7.90
2019-05-19T10:49:19.221Z,6.50
2019-05-19T10:51:48.607Z,9.20
2019-05-19T10:54:18.124Z,11.70
2019-05-19T10:56:47.276Z,7.90
2019-05-19T10:59:16.828Z,6.20
2019-05-19T11:01:45.930Z,6.30
2019-05-19T11:04:15.039Z,15.57
2019-05-19T11:06:44.457Z,6.53
2019-05-19T11:09:14.027Z,6.73
2019-05-19T11:11:43.110Z,8.67
2019-05-19T11:14:12.379Z,10.33
2019-05-19T11:16:41.841Z,6.00
2019-05-19T11:19:11.379Z,6.80
2019-05-19T11:21:40.850Z,6.57
2019-05-19T11:24:10.243Z,5.70
2019-05-19T11:26:39.934Z,5.80
2019-05-19T11:29:09.363Z,6.27
2019-05-19T11:31:38.837Z,6.57
2019-05-19T11:34:08.018Z,6.10
2019-05-19T11:36:37.419Z,6.33
2019-05-19T11:39:08.260Z,5.40
2019-05-19T11:41:37.342Z,5.53
2019-05-19T11:44:06.526Z,5.73
2019-05-19T11:46:35.616Z,3.87
2019-05-19T11:49:04.734Z,3.93
2019-05-19T11:51:33.826Z,5.47
2019-05-19T11:54:03.361Z,5.07
2019-05-19T11:56:33.002Z,6.00
2019-05-19T11:59:02.684Z,4.73
2019-05-19T12:01:31.794Z,3.83
2019-05-19T12:04:01.207Z,5.70
2019-05-19T12:06:39.191Z,4.93
2019-05-19T12:09:01.424Z,7.57
2019-05-19T12:11:30.514Z,3.77
2019-05-19T12:14:00.358Z,4.97
2019-05-19T12:16:29.766Z,4.10
2019-05-19T12:18:59.375Z,2.90
2019-05-19T12:21:28.563Z,2.90
2019-05-19T12:23:57.952Z,2.70
2019-05-19T12:26:27.225Z,4.00
2019-05-19T12:28:56.756Z,8.27
2019-05-19T12:31:25.838Z,6.80
2019-05-19T12:33:55.281Z,3.20
2019-05-19T12:36:24.788Z,2.20
2019-05-19T12:38:53.879Z,3.00
2019-05-19T12:41:23.061Z,2.70
2019-05-19T12:43:52.146Z,6.37
2019-05-19T12:46:21.210Z,4.50
2019-05-19T12:48:50.403Z,5.10
2019-05-19T12:51:19.826Z,5.03
2019-05-19T12:53:48.925Z,7.30
2019-05-19T12:56:18.018Z,3.67
2019-05-19T12:58:47.281Z,3.93
2019-05-19T13:01:17.490Z,6.03
2019-05-19T13:03:46.898Z,4.00
2019-05-19T13:06:16.304Z,4.67
2019-05-19T13:08:45.433Z,5.10
2019-05-19T13:11:14.540Z,3.80
2019-05-19T13:13:44.003Z,3.53
2019-05-19T13:16:13.110Z,3.33
2019-05-19T13:18:42.197Z,6.03
2019-05-19T13:21:11.672Z,6.90
2019-05-19T13:23:41.002Z,3.20
2019-05-19T13:33:34.595Z,4.10
2019-05-19T13:36:03.703Z,14.50
2019-05-19T13:38:32.780Z,4.67
2019-05-19T13:41:02.219Z,3.77
2019-05-19T13:43:31.332Z,5.27
2019-05-19T13:46:00.493Z,3.57
2019-05-19T13:48:29.677Z,3.53
2019-05-19T13:50:59.112Z,3.00
2019-05-19T13:53:28.831Z,3.60
2019-05-19T13:55:58.008Z,5.40
2019-05-19T13:58:27.091Z,3.23
2019-05-19T14:00:57.043Z,3.60
2019-05-19T14:03:26.222Z,4.30
2019-05-19T14:05:55.320Z,5.10
2019-05-19T14:08:24.525Z,4.30
2019-05-19T14:10:53.932Z,9.40
2019-05-19T14:13:23.335Z,8.73
2019-05-19T14:15:52.744Z,3.77
2019-05-19T14:18:21.833Z,3.13
2019-05-19T14:20:51.235Z,3.80
2019-05-19T14:23:20.322Z,6.83
2019-05-19T14:25:49.434Z,7.53
2019-05-19T14:28:18.527Z,4.07
2019-05-19T14:30:47.646Z,4.83
2019-05-19T14:33:16.723Z,3.30
2019-05-19T14:35:46.128Z,3.20
2019-05-19T14:38:15.206Z,3.20
2019-05-19T14:40:44.933Z,3.40
2019-05-19T14:43:14.337Z,3.93
2019-05-19T14:45:43.955Z,4.10
2019-05-19T14:48:13.107Z,11.80
2019-05-19T14:50:42.224Z,2.97
2019-05-19T14:53:11.308Z,3.00
2019-05-19T14:55:40.751Z,2.90
2019-05-19T14:58:09.852Z,2.63
2019-05-19T15:00:39.039Z,3.60
2019-05-19T15:03:08.467Z,3.50
2019-05-19T15:05:37.686Z,2.60
2019-05-19T15:08:07.556Z,2.73
2019-05-19T15:10:36.650Z,4.60
2019-05-19T15:13:06.362Z,5.43
2019-05-19T15:15:35.478Z,4.63
2019-05-19T15:18:04.964Z,3.60
2019-05-19T15:20:34.886Z,3.40
2019-05-19T15:23:04.011Z,3.13
2019-05-19T15:25:33.795Z,3.57
2019-05-19T15:28:05.396Z,3.13
2019-05-19T15:30:34.235Z,4.30
2019-05-19T15:33:03.326Z,3.50
2019-05-19T15:35:32.423Z,5.47
2019-05-19T15:38:02.143Z,4.07
2019-05-19T15:40:31.267Z,5.33
2019-05-19T15:43:00.694Z,3.43
2019-05-19T15:45:29.769Z,4.03
2019-05-19T15:47:58.967Z,3.40
2019-05-19T15:50:28.371Z,3.03
2019-05-19T15:52:57.950Z,2.90
2019-05-19T15:55:27.403Z,3.07
2019-05-19T15:57:57.171Z,2.90
2019-05-19T16:00:26.288Z,2.80
2019-05-19T16:02:55.466Z,2.80
2019-05-19T16:05:24.858Z,3.10
2019-05-19T16:07:54.831Z,5.10
2019-05-19T16:10:24.067Z,2.90
2019-05-19T16:12:53.242Z,3.17
2019-05-19T16:15:22.828Z,2.90
2019-05-19T16:17:51.978Z,5.87
2019-05-19T16:20:21.071Z,3.17
2019-05-19T16:22:50.528Z,2.40
2019-05-19T16:25:19.614Z,5.20
2019-05-19T16:27:48.717Z,3.63
2019-05-19T16:30:17.819Z,2.47
2019-05-19T16:32:46.923Z,4.20
2019-05-19T16:35:16.032Z,2.93
2019-05-19T16:37:45.139Z,3.10
2019-05-19T16:40:14.526Z,2.70
2019-05-19T16:42:43.988Z,3.27
2019-05-19T16:45:13.505Z,3.00
2019-05-19T16:47:42.678Z,2.77
2019-05-19T16:50:12.655Z,2.90
2019-05-19T16:52:41.788Z,5.23
2019-05-19T16:55:21.603Z,3.00
2019-05-19T16:57:51.044Z,3.70
2019-05-19T17:00:20.710Z,6.60
2019-05-19T17:02:49.808Z,4.73
2019-05-19T17:05:19.030Z,6.40
2019-05-19T17:07:48.203Z,3.47
2019-05-19T17:10:18.175Z,4.70
2019-05-19T17:12:47.347Z,7.23
2019-05-19T17:15:17.076Z,6.70
2019-05-19T17:17:46.208Z,8.57
2019-05-19T17:20:16.323Z,6.07
2019-05-19T17:22:45.478Z,8.27
2019-05-19T17:25:15.358Z,13.37
2019-05-19T17:27:44.477Z,7.23
2019-05-19T17:30:14.454Z,5.20
2019-05-19T17:32:44.200Z,8.67
2019-05-19T17:35:13.905Z,5.10
2019-05-19T17:37:43.113Z,5.40
2019-05-19T17:40:12.856Z,4.80
2019-05-19T17:42:42.323Z,4.80
2019-05-19T17:45:11.991Z,6.77
2019-05-19T17:47:41.463Z,11.77
2019-05-19T17:50:11.458Z,7.47
2019-05-19T17:52:40.869Z,8.00
2019-05-19T17:55:10.140Z,4.43
2019-05-19T17:57:39.940Z,4.40
2019-05-19T18:00:10.365Z,7.50
2019-05-19T18:02:39.873Z,3.83
2019-05-19T18:05:09.079Z,3.87
2019-05-19T18:07:38.716Z,4.03
2019-05-19T18:10:07.982Z,3.73
2019-05-19T18:12:37.071Z,4.40
2019-05-19T18:15:06.678Z,4.33
2019-05-19T18:17:35.860Z,4.10
2019-05-19T18:20:06.313Z,5.90
2019-05-19T18:22:35.671Z,5.80
2019-05-19T18:25:04.904Z,4.97
2019-05-19T18:27:34.230Z,4.90
2019-05-19T18:30:03.437Z,5.80
2019-05-19T18:32:32.540Z,5.63
2019-05-19T18:35:01.717Z,5.03
2019-05-19T18:37:31.274Z,7.20
2019-05-19T18:40:00.665Z,8.23
2019-05-19T18:42:30.046Z,16.60
2019-05-19T18:44:59.494Z,12.17
2019-05-19T18:47:28.850Z,13.70
2019-05-19T18:49:58.310Z,13.47
2019-05-19T18:52:27.725Z,10.27
2019-05-19T18:54:57.087Z,12.43
2019-05-19T18:57:26.171Z,9.13
2019-05-19T18:59:55.287Z,12.93
2019-05-19T19:02:24.399Z,64.83
2019-05-19T19:04:53.517Z,12.60
2019-05-19T19:07:25.255Z,11.43
2019-05-19T19:09:55.271Z,11.53
2019-05-19T19:12:24.534Z,44.97
2019-05-19T19:14:53.647Z,12.23
2019-05-19T19:17:22.864Z,13.67
2019-05-19T19:19:52.011Z,18.20
2019-05-19T19:22:21.248Z,22.37
2019-05-19T19:24:50.582Z,19.30
2019-05-19T19:27:20.015Z,12.63
2019-05-19T19:30:02.433Z,20.10
2019-05-19T19:32:20.768Z,21.27
2019-05-19T19:34:50.537Z,30.30
2019-05-19T19:37:19.636Z,14.77
2019-05-19T19:39:49.342Z,15.40
2019-05-19T19:42:18.431Z,14.70
2019-05-19T19:44:47.548Z,13.80
2019-05-19T19:47:16.646Z,14.87
2019-05-19T19:49:45.753Z,15.17
2019-05-19T19:52:15.336Z,17.87
2019-05-19T19:54:44.784Z,14.43
2019-05-19T19:57:14.560Z,13.50
2019-05-19T19:59:43.671Z,16.73
2019-05-19T20:02:32.084Z,13.17
2019-05-19T20:05:01.699Z,14.17
2019-05-19T20:07:30.696Z,12.20
2019-05-19T20:10:00.398Z,20.57
2019-05-19T20:12:29.469Z,14.10
2019-05-19T20:14:58.793Z,13.83
2019-05-19T20:17:27.696Z,20.40
2019-05-19T20:19:57.396Z,29.90
2019-05-19T20:22:26.701Z,47.20
2019-05-19T20:24:55.993Z,46.20
2019-05-19T20:27:25.078Z,33.80
2019-05-19T20:29:54.152Z,29.10
2019-05-19T20:32:23.191Z,34.90
2019-05-19T20:34:52.241Z,37.20
2019-05-19T20:37:21.578Z,25.23
2019-05-19T20:39:50.612Z,24.07
2019-05-19T20:42:19.684Z,11.83
2019-05-19T20:44:48.719Z,13.60
2019-05-19T20:47:18.457Z,13.57
2019-05-19T20:49:47.508Z,13.13
2019-05-19T20:52:16.921Z,13.00
2019-05-19T20:54:46.128Z,11.33
2019-05-19T20:57:15.453Z,12.63
2019-05-19T20:59:44.505Z,15.03
2019-05-19T21:02:13.576Z,13.33
2019-05-19T21:04:42.629Z,13.47
2019-05-19T21:07:12.045Z,16.63
2019-05-19T21:09:41.105Z,11.63
2019-05-19T21:12:10.436Z,15.07
2019-05-19T21:14:39.484Z,14.83
2019-05-19T21:17:08.558Z,12.47
2019-05-19T21:19:37.612Z,17.47
2019-05-19T21:22:06.686Z,15.63
2019-05-19T21:24:36.013Z,11.10
2019-05-19T21:27:05.312Z,10.53
2019-05-19T21:29:34.917Z,8.60
2019-05-19T21:32:04.325Z,7.57
2019-05-19T21:34:33.725Z,8.60
2019-05-19T21:37:03.024Z,8.93
2019-05-19T21:39:32.159Z,7.73
2019-05-19T21:42:01.145Z,8.30
2019-05-19T21:44:30.508Z,7.03
2019-05-19T21:46:59.567Z,9.27
2019-05-19T21:49:28.612Z,9.70
2019-05-19T21:51:58.204Z,9.13
2019-05-19T21:54:27.605Z,7.57
2019-05-19T21:56:56.904Z,9.80
2019-05-19T21:59:26.208Z,7.63
2019-05-19T22:01:56.014Z,7.33
2019-05-19T22:04:25.325Z,7.23
2019-05-19T22:07:13.478Z,9.20
2019-05-19T22:09:42.683Z,6.27
2019-05-19T22:12:11.768Z,5.70
2019-05-19T22:14:59.919Z,7.40
2019-05-19T22:17:29.602Z,6.53
2019-05-19T22:19:58.792Z,6.07
2019-05-19T22:22:28.464Z,15.20
2019-05-19T22:24:57.800Z,7.57
2019-05-19T22:27:27.308Z,5.73
2019-05-19T22:29:56.552Z,6.40
2019-05-19T22:32:25.913Z,5.57
2019-05-19T22:34:55.129Z,5.87
2019-05-19T22:37:24.420Z,7.77
2019-05-19T22:39:53.396Z,7.00
2019-05-19T22:42:22.695Z,6.70
2019-05-19T22:45:11.144Z,6.77
2019-05-19T22:47:40.604Z,6.67
2019-05-19T22:50:09.643Z,7.93
2019-05-19T22:52:38.756Z,6.70
2019-05-19T22:55:07.992Z,8.97
2019-05-19T22:57:36.960Z,9.00
2019-05-19T23:00:07.119Z,8.67
2019-05-19T23:02:36.179Z,8.07
2019-05-19T23:05:05.612Z,7.60
2019-05-19T23:07:34.685Z,8.87
2019-05-19T23:10:22.927Z,7.20
2019-05-19T23:12:51.970Z,7.30
2019-05-19T23:15:21.200Z,6.60
2019-05-19T23:17:50.680Z,8.30
2019-05-19T23:20:20.390Z,7.40
2019-05-19T23:22:49.450Z,10.40
2019-05-19T23:25:18.339Z,10.97
2019-05-19T23:27:47.625Z,12.83
2019-05-19T23:30:16.663Z,9.27
2019-05-19T23:32:45.968Z,7.57
2019-05-19T23:35:15.268Z,8.10
2019-05-19T23:37:44.312Z,11.27
2019-05-19T23:40:13.372Z,14.03
2019-05-19T23:42:42.652Z,9.00
2019-05-19T23:45:12.156Z,10.40
2019-05-19T23:47:41.223Z,13.20
2019-05-19T23:50:10.960Z,7.97
2019-05-19T23:52:40.258Z,7.77
2019-05-19T23:55:10.588Z,10.90
2019-05-19T23:57:39.884Z,8.47
